sensor_id;sensor_type;location;lat;lon;timestamp;P1;durP1;ratioP1;P2;durP2;ratioP2
5022;SDS011;2530;47.990;7.866;2023-07-02T00:01:32;2.85;;;2.55;;
5022;SDS011;2530;47.990;7.866;2023-07-02T00:03:58;2.60;;;2.40;;
5022;SDS011;2530;47.990;7.866;2023-07-02T00:06:23;2.57;;;2.37;;
5022;SDS011;2530;47.990;7.866;2023-07-02T00:08:50;3.03;;;2.72;;
5022;SDS011;2530;47.990;7.866;2023-07-02T00:11:15;2.97;;;2.60;;
5022;SDS011;2530;47.990;7.866;2023-07-02T00:13:41;2.77;;;2.30;;
5022;SDS011;2530;47.990;7.866;2023-07-02T00:16:06;2.90;;;2.60;;
5022;SDS011;2530;47.990;7.866;2023-07-02T00:18:32;2.60;;;2.40;;
5022;SDS011;2530;47.990;7.866;2023-07-02T00:21:01;2.83;;;2.45;;
5022;SDS011;2530;47.990;7.866;2023-07-02T00:23:29;3.15;;;2.88;;
5022;SDS011;2530;47.990;7.866;2023-07-02T00:25:58;5.95;;;2.70;;
5022;SDS011;2530;47.990;7.866;2023-07-02T00:28:24;3.20;;;2.53;;
5022;SDS011;2530;47.990;7.866;2023-07-02T00:30:49;2.70;;;2.50;;
5022;SDS011;2530;47.990;7.866;2023-07-02T00:33:15;3.33;;;2.60;;
5022;SDS011;2530;47.990;7.866;2023-07-02T00:35:41;3.00;;;2.80;;
5022;SDS011;2530;47.990;7.866;2023-07-02T00:38:06;2.70;;;2.50;;
5022;SDS011;2530;47.990;7.866;2023-07-02T00:40:32;3.78;;;2.90;;
5022;SDS011;2530;47.990;7.866;2023-07-02T00:42:57;3.00;;;2.60;;
5022;SDS011;2530;47.990;7.866;2023-07-02T00:45:23;3.42;;;2.83;;
5022;SDS011;2530;47.990;7.866;2023-07-02T00:47:53;3.40;;;3.10;;
5022;SDS011;2530;47.990;7.866;2023-07-02T00:50:19;3.38;;;3.08;;
5022;SDS011;2530;47.990;7.866;2023-07-02T00:52:48;2.60;;;2.40;;
5022;SDS011;2530;47.990;7.866;2023-07-02T00:55:13;2.80;;;2.50;;
5022;SDS011;2530;47.990;7.866;2023-07-02T00:57:39;2.80;;;2.60;;
5022;SDS011;2530;47.990;7.866;2023-07-02T01:00:06;2.90;;;2.70;;
5022;SDS011;2530;47.990;7.866;2023-07-02T01:02:32;3.20;;;2.90;;
5022;SDS011;2530;47.990;7.866;2023-07-02T01:04:57;2.85;;;2.65;;
5022;SDS011;2530;47.990;7.866;2023-07-02T01:07:24;2.72;;;2.53;;
5022;SDS011;2530;47.990;7.866;2023-07-02T01:09:50;3.85;;;2.50;;
5022;SDS011;2530;47.990;7.866;2023-07-02T01:12:16;2.90;;;2.70;;
5022;SDS011;2530;47.990;7.866;2023-07-02T01:14:44;3.17;;;2.97;;
5022;SDS011;2530;47.990;7.866;2023-07-02T01:17:18;3.50;;;2.63;;
5022;SDS011;2530;47.990;7.866;2023-07-02T01:22:24;3.17;;;2.95;;
5022;SDS011;2530;47.990;7.866;2023-07-02T01:24:51;3.13;;;2.65;;
5022;SDS011;2530;47.990;7.866;2023-07-02T01:27:18;3.10;;;2.80;;
5022;SDS011;2530;47.990;7.866;2023-07-02T01:29:44;3.78;;;2.90;;
5022;SDS011;2530;47.990;7.866;2023-07-02T01:32:11;3.20;;;2.90;;
5022;SDS011;2530;47.990;7.866;2023-07-02T01:34:40;3.90;;;2.90;;
5022;SDS011;2530;47.990;7.866;2023-07-02T01:37:08;2.60;;;2.40;;
5022;SDS011;2530;47.990;7.866;2023-07-02T01:39:34;2.90;;;2.70;;
5022;SDS011;2530;47.990;7.866;2023-07-02T01:44:41;3.25;;;2.95;;
5022;SDS011;2530;47.990;7.866;2023-07-02T01:47:08;3.53;;;3.22;;
5022;SDS011;2530;47.990;7.866;2023-07-02T01:49:33;4.00;;;3.20;;
5022;SDS011;2530;47.990;7.866;2023-07-02T01:52:00;3.47;;;3.17;;
5022;SDS011;2530;47.990;7.866;2023-07-02T01:54:26;3.17;;;2.97;;
5022;SDS011;2530;47.990;7.866;2023-07-02T01:56:52;3.88;;;3.10;;
5022;SDS011;2530;47.990;7.866;2023-07-02T01:59:18;4.13;;;3.70;;
5022;SDS011;2530;47.990;7.866;2023-07-02T02:01:44;3.60;;;3.30;;
5022;SDS011;2530;47.990;7.866;2023-07-02T02:04:10;3.63;;;3.33;;
5022;SDS011;2530;47.990;7.866;2023-07-02T02:06:36;3.42;;;3.13;;
5022;SDS011;2530;47.990;7.866;2023-07-02T02:09:03;3.45;;;3.10;;
5022;SDS011;2530;47.990;7.866;2023-07-02T02:11:29;3.53;;;3.22;;
5022;SDS011;2530;47.990;7.866;2023-07-02T02:13:55;3.90;;;3.42;;
5022;SDS011;2530;47.990;7.866;2023-07-02T02:16:21;3.38;;;3.03;;
5022;SDS011;2530;47.990;7.866;2023-07-02T02:18:47;2.90;;;2.70;;
5022;SDS011;2530;47.990;7.866;2023-07-02T02:21:12;4.90;;;3.10;;
5022;SDS011;2530;47.990;7.866;2023-07-02T02:23:38;3.67;;;3.38;;
5022;SDS011;2530;47.990;7.866;2023-07-02T02:26:04;3.00;;;2.70;;
5022;SDS011;2530;47.990;7.866;2023-07-02T02:28:29;4.73;;;3.30;;
5022;SDS011;2530;47.990;7.866;2023-07-02T02:30:55;3.10;;;2.90;;
5022;SDS011;2530;47.990;7.866;2023-07-02T02:33:21;3.60;;;3.30;;
5022;SDS011;2530;47.990;7.866;2023-07-02T02:35:47;3.58;;;3.28;;
5022;SDS011;2530;47.990;7.866;2023-07-02T02:38:13;6.15;;;3.67;;
5022;SDS011;2530;47.990;7.866;2023-07-02T02:40:39;4.47;;;2.80;;
5022;SDS011;2530;47.990;7.866;2023-07-02T02:43:05;3.77;;;3.47;;
5022;SDS011;2530;47.990;7.866;2023-07-02T02:45:30;6.40;;;3.77;;
5022;SDS011;2530;47.990;7.866;2023-07-02T02:47:56;4.90;;;3.85;;
5022;SDS011;2530;47.990;7.866;2023-07-02T02:50:21;3.90;;;3.20;;
5022;SDS011;2530;47.990;7.866;2023-07-02T02:52:47;4.88;;;3.60;;
5022;SDS011;2530;47.990;7.866;2023-07-02T02:55:13;5.20;;;3.70;;
5022;SDS011;2530;47.990;7.866;2023-07-02T02:57:38;3.60;;;3.30;;
5022;SDS011;2530;47.990;7.866;2023-07-02T03:00:04;3.88;;;3.33;;
5022;SDS011;2530;47.990;7.866;2023-07-02T03:02:31;5.32;;;3.38;;
5022;SDS011;2530;47.990;7.866;2023-07-02T03:04:57;4.25;;;3.30;;
5022;SDS011;2530;47.990;7.866;2023-07-02T03:07:27;4.18;;;3.78;;
5022;SDS011;2530;47.990;7.866;2023-07-02T03:09:56;5.65;;;3.70;;
5022;SDS011;2530;47.990;7.866;2023-07-02T03:12:22;5.50;;;4.00;;
5022;SDS011;2530;47.990;7.866;2023-07-02T03:14:47;4.10;;;3.70;;
5022;SDS011;2530;47.990;7.866;2023-07-02T03:17:17;4.80;;;3.97;;
5022;SDS011;2530;47.990;7.866;2023-07-02T03:19:44;4.72;;;3.55;;
5022;SDS011;2530;47.990;7.866;2023-07-02T03:22:09;5.10;;;4.20;;
5022;SDS011;2530;47.990;7.866;2023-07-02T03:24:34;3.90;;;3.60;;
5022;SDS011;2530;47.990;7.866;2023-07-02T03:27:00;6.85;;;4.05;;
5022;SDS011;2530;47.990;7.866;2023-07-02T03:29:26;5.40;;;3.90;;
5022;SDS011;2530;47.990;7.866;2023-07-02T03:31:51;6.22;;;4.30;;
5022;SDS011;2530;47.990;7.866;2023-07-02T03:34:17;6.10;;;3.90;;
5022;SDS011;2530;47.990;7.866;2023-07-02T03:36:42;5.10;;;4.60;;
5022;SDS011;2530;47.990;7.866;2023-07-02T03:39:09;8.07;;;4.68;;
5022;SDS011;2530;47.990;7.866;2023-07-02T03:41:35;5.93;;;4.45;;
5022;SDS011;2530;47.990;7.866;2023-07-02T03:44:00;5.43;;;4.03;;
5022;SDS011;2530;47.990;7.866;2023-07-02T03:46:26;7.43;;;4.35;;
5022;SDS011;2530;47.990;7.866;2023-07-02T03:48:51;6.50;;;4.70;;
5022;SDS011;2530;47.990;7.866;2023-07-02T03:51:17;5.93;;;4.50;;
5022;SDS011;2530;47.990;7.866;2023-07-02T03:53:42;5.30;;;4.45;;
5022;SDS011;2530;47.990;7.866;2023-07-02T03:56:08;6.55;;;4.55;;
5022;SDS011;2530;47.990;7.866;2023-07-02T03:58:34;6.17;;;4.77;;
5022;SDS011;2530;47.990;7.866;2023-07-02T04:01:00;7.43;;;4.40;;
5022;SDS011;2530;47.990;7.866;2023-07-02T04:03:26;5.60;;;4.50;;
5022;SDS011;2530;47.990;7.866;2023-07-02T04:05:51;7.87;;;5.63;;
5022;SDS011;2530;47.990;7.866;2023-07-02T04:08:17;8.27;;;6.65;;
5022;SDS011;2530;47.990;7.866;2023-07-02T04:10:45;9.82;;;7.18;;
5022;SDS011;2530;47.990;7.866;2023-07-02T04:13:11;12.48;;;8.02;;
5022;SDS011;2530;47.990;7.866;2023-07-02T04:15:37;11.77;;;7.20;;
5022;SDS011;2530;47.990;7.866;2023-07-02T04:18:02;12.53;;;8.00;;
5022;SDS011;2530;47.990;7.866;2023-07-02T04:20:28;9.95;;;8.63;;
5022;SDS011;2530;47.990;7.866;2023-07-02T04:22:53;11.70;;;9.00;;
5022;SDS011;2530;47.990;7.866;2023-07-02T04:25:19;13.98;;;9.65;;
5022;SDS011;2530;47.990;7.866;2023-07-02T04:27:45;12.35;;;8.85;;
5022;SDS011;2530;47.990;7.866;2023-07-02T04:30:11;14.85;;;9.65;;
5022;SDS011;2530;47.990;7.866;2023-07-02T04:32:37;13.18;;;10.00;;
5022;SDS011;2530;47.990;7.866;2023-07-02T04:35:06;13.90;;;10.90;;
5022;SDS011;2530;47.990;7.866;2023-07-02T04:37:32;13.20;;;10.18;;
5022;SDS011;2530;47.990;7.866;2023-07-02T04:39:58;16.85;;;12.00;;
5022;SDS011;2530;47.990;7.866;2023-07-02T04:42:24;13.38;;;11.10;;
5022;SDS011;2530;47.990;7.866;2023-07-02T04:44:52;15.40;;;12.63;;
5022;SDS011;2530;47.990;7.866;2023-07-02T04:47:19;17.13;;;12.53;;
5022;SDS011;2530;47.990;7.866;2023-07-02T04:49:45;15.67;;;12.07;;
5022;SDS011;2530;47.990;7.866;2023-07-02T04:52:10;20.37;;;11.90;;
5022;SDS011;2530;47.990;7.866;2023-07-02T04:54:36;22.08;;;13.80;;
5022;SDS011;2530;47.990;7.866;2023-07-02T04:57:01;20.00;;;13.60;;
5022;SDS011;2530;47.990;7.866;2023-07-02T04:59:27;20.70;;;13.77;;
5022;SDS011;2530;47.990;7.866;2023-07-02T05:01:53;16.35;;;13.23;;
5022;SDS011;2530;47.990;7.866;2023-07-02T05:04:18;18.53;;;13.03;;
5022;SDS011;2530;47.990;7.866;2023-07-02T05:06:44;19.03;;;14.20;;
5022;SDS011;2530;47.990;7.866;2023-07-02T05:09:09;19.05;;;13.98;;
5022;SDS011;2530;47.990;7.866;2023-07-02T05:11:35;20.50;;;14.73;;
5022;SDS011;2530;47.990;7.866;2023-07-02T05:14:00;19.25;;;14.70;;
5022;SDS011;2530;47.990;7.866;2023-07-02T05:16:26;19.83;;;14.55;;
5022;SDS011;2530;47.990;7.866;2023-07-02T05:18:52;17.30;;;14.40;;
5022;SDS011;2530;47.990;7.866;2023-07-02T05:21:18;20.57;;;14.83;;
5022;SDS011;2530;47.990;7.866;2023-07-02T05:23:44;19.33;;;14.37;;
5022;SDS011;2530;47.990;7.866;2023-07-02T05:26:09;19.53;;;14.53;;
5022;SDS011;2530;47.990;7.866;2023-07-02T05:28:35;18.77;;;14.13;;
5022;SDS011;2530;47.990;7.866;2023-07-02T05:31:01;20.30;;;14.57;;
5022;SDS011;2530;47.990;7.866;2023-07-02T05:33:26;21.17;;;15.13;;
5022;SDS011;2530;47.990;7.866;2023-07-02T05:35:52;18.90;;;14.63;;
5022;SDS011;2530;47.990;7.866;2023-07-02T05:38:18;20.58;;;14.27;;
5022;SDS011;2530;47.990;7.866;2023-07-02T05:40:44;17.85;;;14.13;;
5022;SDS011;2530;47.990;7.866;2023-07-02T05:43:10;19.88;;;13.77;;
5022;SDS011;2530;47.990;7.866;2023-07-02T05:45:36;20.95;;;14.68;;
5022;SDS011;2530;47.990;7.866;2023-07-02T05:48:02;20.93;;;15.77;;
5022;SDS011;2530;47.990;7.866;2023-07-02T05:50:27;18.55;;;14.05;;
5022;SDS011;2530;47.990;7.866;2023-07-02T05:52:53;23.25;;;15.18;;
5022;SDS011;2530;47.990;7.866;2023-07-02T05:55:18;19.17;;;14.83;;
5022;SDS011;2530;47.990;7.866;2023-07-02T05:57:44;19.95;;;15.02;;
5022;SDS011;2530;47.990;7.866;2023-07-02T06:00:10;21.27;;;14.90;;
5022;SDS011;2530;47.990;7.866;2023-07-02T06:02:36;20.70;;;15.27;;
5022;SDS011;2530;47.990;7.866;2023-07-02T06:05:02;18.93;;;14.30;;
5022;SDS011;2530;47.990;7.866;2023-07-02T06:07:28;19.90;;;14.98;;
5022;SDS011;2530;47.990;7.866;2023-07-02T06:09:53;23.93;;;15.83;;
5022;SDS011;2530;47.990;7.866;2023-07-02T06:12:20;20.50;;;15.67;;
5022;SDS011;2530;47.990;7.866;2023-07-02T06:14:46;19.85;;;15.77;;
5022;SDS011;2530;47.990;7.866;2023-07-02T06:17:11;23.40;;;15.02;;
5022;SDS011;2530;47.990;7.866;2023-07-02T06:19:37;22.93;;;16.40;;
5022;SDS011;2530;47.990;7.866;2023-07-02T06:22:03;24.45;;;15.13;;
5022;SDS011;2530;47.990;7.866;2023-07-02T06:24:29;23.33;;;16.03;;
5022;SDS011;2530;47.990;7.866;2023-07-02T06:26:54;21.10;;;16.30;;
5022;SDS011;2530;47.990;7.866;2023-07-02T06:29:21;22.80;;;15.88;;
5022;SDS011;2530;47.990;7.866;2023-07-02T06:31:47;21.50;;;15.98;;
5022;SDS011;2530;47.990;7.866;2023-07-02T06:34:13;23.23;;;15.90;;
5022;SDS011;2530;47.990;7.866;2023-07-02T06:36:39;26.27;;;16.83;;
5022;SDS011;2530;47.990;7.866;2023-07-02T06:39:05;22.60;;;16.10;;
5022;SDS011;2530;47.990;7.866;2023-07-02T06:41:30;23.40;;;16.37;;
5022;SDS011;2530;47.990;7.866;2023-07-02T06:43:56;26.80;;;16.23;;
5022;SDS011;2530;47.990;7.866;2023-07-02T06:46:21;20.30;;;15.40;;
5022;SDS011;2530;47.990;7.866;2023-07-02T06:48:47;22.57;;;15.70;;
5022;SDS011;2530;47.990;7.866;2023-07-02T06:51:13;21.30;;;15.83;;
5022;SDS011;2530;47.990;7.866;2023-07-02T06:53:40;25.75;;;16.98;;
5022;SDS011;2530;47.990;7.866;2023-07-02T06:56:07;22.60;;;16.65;;
5022;SDS011;2530;47.990;7.866;2023-07-02T06:58:34;22.70;;;15.03;;
5022;SDS011;2530;47.990;7.866;2023-07-02T07:01:00;24.03;;;16.70;;
5022;SDS011;2530;47.990;7.866;2023-07-02T07:03:25;24.50;;;16.38;;
5022;SDS011;2530;47.990;7.866;2023-07-02T07:05:51;20.98;;;16.48;;
5022;SDS011;2530;47.990;7.866;2023-07-02T07:08:17;25.30;;;16.95;;
5022;SDS011;2530;47.990;7.866;2023-07-02T07:10:42;21.57;;;16.60;;
5022;SDS011;2530;47.990;7.866;2023-07-02T07:13:10;24.25;;;17.60;;
5022;SDS011;2530;47.990;7.866;2023-07-02T07:15:38;23.17;;;16.30;;
5022;SDS011;2530;47.990;7.866;2023-07-02T07:18:04;26.05;;;16.73;;
5022;SDS011;2530;47.990;7.866;2023-07-02T07:20:30;20.57;;;16.40;;
5022;SDS011;2530;47.990;7.866;2023-07-02T07:22:56;23.48;;;17.25;;
5022;SDS011;2530;47.990;7.866;2023-07-02T07:25:22;25.73;;;16.50;;
5022;SDS011;2530;47.990;7.866;2023-07-02T07:27:48;22.95;;;17.08;;
5022;SDS011;2530;47.990;7.866;2023-07-02T07:30:13;22.85;;;16.77;;
5022;SDS011;2530;47.990;7.866;2023-07-02T07:32:39;26.15;;;17.20;;
5022;SDS011;2530;47.990;7.866;2023-07-02T07:35:06;23.08;;;16.17;;
5022;SDS011;2530;47.990;7.866;2023-07-02T07:37:32;24.90;;;16.98;;
5022;SDS011;2530;47.990;7.866;2023-07-02T07:39:57;24.73;;;16.92;;
5022;SDS011;2530;47.990;7.866;2023-07-02T07:42:23;23.00;;;18.50;;
5022;SDS011;2530;47.990;7.866;2023-07-02T07:44:48;24.03;;;17.30;;
5022;SDS011;2530;47.990;7.866;2023-07-02T07:47:14;22.80;;;18.35;;
5022;SDS011;2530;47.990;7.866;2023-07-02T07:49:40;25.30;;;19.10;;
5022;SDS011;2530;47.990;7.866;2023-07-02T07:52:05;25.37;;;18.43;;
5022;SDS011;2530;47.990;7.866;2023-07-02T07:54:32;26.30;;;19.40;;
5022;SDS011;2530;47.990;7.866;2023-07-02T07:57:00;24.23;;;17.50;;
5022;SDS011;2530;47.990;7.866;2023-07-02T07:59:25;26.57;;;18.23;;
5022;SDS011;2530;47.990;7.866;2023-07-02T08:01:51;25.57;;;19.50;;
5022;SDS011;2530;47.990;7.866;2023-07-02T08:04:16;25.83;;;18.63;;
5022;SDS011;2530;47.990;7.866;2023-07-02T08:06:42;25.63;;;19.23;;
5022;SDS011;2530;47.990;7.866;2023-07-02T08:09:07;26.35;;;18.75;;
5022;SDS011;2530;47.990;7.866;2023-07-02T08:11:34;28.00;;;19.75;;
5022;SDS011;2530;47.990;7.866;2023-07-02T08:14:00;25.85;;;19.00;;
5022;SDS011;2530;47.990;7.866;2023-07-02T08:16:25;23.97;;;18.40;;
5022;SDS011;2530;47.990;7.866;2023-07-02T08:18:51;25.93;;;19.77;;
5022;SDS011;2530;47.990;7.866;2023-07-02T08:21:16;25.90;;;18.03;;
5022;SDS011;2530;47.990;7.866;2023-07-02T08:23:42;25.70;;;19.00;;
5022;SDS011;2530;47.990;7.866;2023-07-02T08:26:08;26.13;;;18.50;;
5022;SDS011;2530;47.990;7.866;2023-07-02T08:28:35;24.55;;;17.30;;
5022;SDS011;2530;47.990;7.866;2023-07-02T08:31:01;25.17;;;18.80;;
5022;SDS011;2530;47.990;7.866;2023-07-02T08:33:27;25.80;;;19.60;;
5022;SDS011;2530;47.990;7.866;2023-07-02T08:35:52;24.30;;;18.30;;
5022;SDS011;2530;47.990;7.866;2023-07-02T08:38:17;25.70;;;18.33;;
5022;SDS011;2530;47.990;7.866;2023-07-02T08:40:43;26.52;;;18.38;;
5022;SDS011;2530;47.990;7.866;2023-07-02T08:43:09;27.33;;;19.10;;
5022;SDS011;2530;47.990;7.866;2023-07-02T08:45:34;28.63;;;19.13;;
5022;SDS011;2530;47.990;7.866;2023-07-02T08:48:01;24.88;;;18.25;;
5022;SDS011;2530;47.990;7.866;2023-07-02T08:50:27;26.93;;;18.80;;
5022;SDS011;2530;47.990;7.866;2023-07-02T08:52:53;24.80;;;19.10;;
5022;SDS011;2530;47.990;7.866;2023-07-02T08:55:19;25.52;;;18.60;;
5022;SDS011;2530;47.990;7.866;2023-07-02T08:57:53;25.92;;;19.65;;
5022;SDS011;2530;47.990;7.866;2023-07-02T09:00:19;25.45;;;19.20;;
5022;SDS011;2530;47.990;7.866;2023-07-02T09:02:46;29.23;;;18.92;;
5022;SDS011;2530;47.990;7.866;2023-07-02T09:05:12;26.40;;;18.67;;
5022;SDS011;2530;47.990;7.866;2023-07-02T09:07:45;25.50;;;18.90;;
5022;SDS011;2530;47.990;7.866;2023-07-02T09:10:11;27.27;;;18.55;;
5022;SDS011;2530;47.990;7.866;2023-07-02T09:12:37;26.20;;;18.90;;
5022;SDS011;2530;47.990;7.866;2023-07-02T09:15:04;27.65;;;18.88;;
5022;SDS011;2530;47.990;7.866;2023-07-02T09:17:37;25.45;;;18.50;;
5022;SDS011;2530;47.990;7.866;2023-07-02T09:20:04;26.80;;;19.25;;
5022;SDS011;2530;47.990;7.866;2023-07-02T09:22:33;23.80;;;18.35;;
5022;SDS011;2530;47.990;7.866;2023-07-02T09:25:00;22.70;;;18.80;;
5022;SDS011;2530;47.990;7.866;2023-07-02T09:27:39;24.92;;;19.17;;
5022;SDS011;2530;47.990;7.866;2023-07-02T09:30:09;25.67;;;18.58;;
5022;SDS011;2530;47.990;7.866;2023-07-02T09:32:38;23.88;;;18.42;;
5022;SDS011;2530;47.990;7.866;2023-07-02T09:35:04;25.90;;;19.00;;
5022;SDS011;2530;47.990;7.866;2023-07-02T09:37:30;24.50;;;18.35;;
5022;SDS011;2530;47.990;7.866;2023-07-02T09:39:56;24.20;;;17.58;;
5022;SDS011;2530;47.990;7.866;2023-07-02T09:42:22;24.13;;;17.83;;
5022;SDS011;2530;47.990;7.866;2023-07-02T09:44:51;26.45;;;17.50;;
5022;SDS011;2530;47.990;7.866;2023-07-02T09:47:17;27.23;;;19.73;;
5022;SDS011;2530;47.990;7.866;2023-07-02T09:49:49;27.15;;;19.23;;
5022;SDS011;2530;47.990;7.866;2023-07-02T09:52:19;26.33;;;17.93;;
5022;SDS011;2530;47.990;7.866;2023-07-02T09:54:45;22.35;;;17.20;;
5022;SDS011;2530;47.990;7.866;2023-07-02T09:57:11;21.88;;;17.42;;
5022;SDS011;2530;47.990;7.866;2023-07-02T09:59:37;24.93;;;18.90;;
5022;SDS011;2530;47.990;7.866;2023-07-02T10:02:04;24.45;;;19.02;;
5022;SDS011;2530;47.990;7.866;2023-07-02T10:04:39;23.35;;;17.30;;
5022;SDS011;2530;47.990;7.866;2023-07-02T10:07:08;25.48;;;17.85;;
5022;SDS011;2530;47.990;7.866;2023-07-02T10:09:39;23.88;;;17.40;;
5022;SDS011;2530;47.990;7.866;2023-07-02T10:12:14;20.40;;;16.10;;
5022;SDS011;2530;47.990;7.866;2023-07-02T10:14:44;21.95;;;17.42;;
5022;SDS011;2530;47.990;7.866;2023-07-02T10:17:22;22.10;;;16.77;;
5022;SDS011;2530;47.990;7.866;2023-07-02T10:19:58;23.00;;;17.80;;
5022;SDS011;2530;47.990;7.866;2023-07-02T10:22:25;22.70;;;17.40;;
5022;SDS011;2530;47.990;7.866;2023-07-02T10:24:58;22.47;;;16.67;;
5022;SDS011;2530;47.990;7.866;2023-07-02T10:27:33;20.33;;;16.10;;
5022;SDS011;2530;47.990;7.866;2023-07-02T10:30:03;22.40;;;16.40;;
5022;SDS011;2530;47.990;7.866;2023-07-02T10:32:30;22.48;;;15.77;;
5022;SDS011;2530;47.990;7.866;2023-07-02T10:34:56;24.02;;;17.88;;
5022;SDS011;2530;47.990;7.866;2023-07-02T10:37:23;23.38;;;15.82;;
5022;SDS011;2530;47.990;7.866;2023-07-02T10:39:49;22.00;;;16.50;;
5022;SDS011;2530;47.990;7.866;2023-07-02T10:42:16;20.85;;;16.20;;
5022;SDS011;2530;47.990;7.866;2023-07-02T10:44:51;18.37;;;15.17;;
5022;SDS011;2530;47.990;7.866;2023-07-02T10:47:18;18.98;;;15.77;;
5022;SDS011;2530;47.990;7.866;2023-07-02T10:49:44;21.92;;;15.40;;
5022;SDS011;2530;47.990;7.866;2023-07-02T10:52:10;20.60;;;15.38;;
5022;SDS011;2530;47.990;7.866;2023-07-02T10:54:39;20.42;;;15.55;;
5022;SDS011;2530;47.990;7.866;2023-07-02T10:57:09;17.27;;;14.70;;
5022;SDS011;2530;47.990;7.866;2023-07-02T10:59:37;17.65;;;14.45;;
5022;SDS011;2530;47.990;7.866;2023-07-02T11:02:03;18.90;;;14.60;;
5022;SDS011;2530;47.990;7.866;2023-07-02T11:04:33;18.60;;;14.30;;
5022;SDS011;2530;47.990;7.866;2023-07-02T11:06:59;19.15;;;14.73;;
5022;SDS011;2530;47.990;7.866;2023-07-02T11:09:25;21.25;;;15.00;;
5022;SDS011;2530;47.990;7.866;2023-07-02T11:11:54;19.73;;;14.98;;
5022;SDS011;2530;47.990;7.866;2023-07-02T11:14:28;21.00;;;15.20;;
5022;SDS011;2530;47.990;7.866;2023-07-02T11:16:58;20.80;;;15.07;;
5022;SDS011;2530;47.990;7.866;2023-07-02T11:19:27;19.23;;;15.02;;
5022;SDS011;2530;47.990;7.866;2023-07-02T11:21:53;17.50;;;14.77;;
5022;SDS011;2530;47.990;7.866;2023-07-02T11:24:27;19.70;;;14.45;;
5022;SDS011;2530;47.990;7.866;2023-07-02T11:26:54;19.15;;;15.05;;
5022;SDS011;2530;47.990;7.866;2023-07-02T11:29:20;20.92;;;15.10;;
5022;SDS011;2530;47.990;7.866;2023-07-02T11:31:45;19.60;;;14.35;;
5022;SDS011;2530;47.990;7.866;2023-07-02T11:34:21;18.90;;;14.83;;
5022;SDS011;2530;47.990;7.866;2023-07-02T11:36:47;17.17;;;14.35;;
5022;SDS011;2530;47.990;7.866;2023-07-02T11:39:13;18.20;;;14.73;;
5022;SDS011;2530;47.990;7.866;2023-07-02T11:41:41;18.83;;;14.88;;
5022;SDS011;2530;47.990;7.866;2023-07-02T11:44:08;17.58;;;13.98;;
5022;SDS011;2530;47.990;7.866;2023-07-02T11:46:34;17.25;;;14.02;;
5022;SDS011;2530;47.990;7.866;2023-07-02T11:49:00;17.60;;;13.80;;
5022;SDS011;2530;47.990;7.866;2023-07-02T11:51:26;20.90;;;15.10;;
5022;SDS011;2530;47.990;7.866;2023-07-02T11:53:51;17.25;;;13.55;;
5022;SDS011;2530;47.990;7.866;2023-07-02T11:56:17;18.00;;;14.03;;
5022;SDS011;2530;47.990;7.866;2023-07-02T11:58:42;16.20;;;13.65;;
5022;SDS011;2530;47.990;7.866;2023-07-02T12:01:08;15.70;;;14.00;;
5022;SDS011;2530;47.990;7.866;2023-07-02T12:03:33;18.17;;;14.55;;
5022;SDS011;2530;47.990;7.866;2023-07-02T12:05:59;16.47;;;13.73;;
5022;SDS011;2530;47.990;7.866;2023-07-02T12:08:25;15.85;;;13.60;;
5022;SDS011;2530;47.990;7.866;2023-07-02T12:10:50;18.33;;;14.03;;
5022;SDS011;2530;47.990;7.866;2023-07-02T12:13:16;19.67;;;13.70;;
5022;SDS011;2530;47.990;7.866;2023-07-02T12:15:42;18.98;;;14.73;;
5022;SDS011;2530;47.990;7.866;2023-07-02T12:18:08;17.17;;;14.40;;
5022;SDS011;2530;47.990;7.866;2023-07-02T12:20:34;19.52;;;14.82;;
5022;SDS011;2530;47.990;7.866;2023-07-02T12:22:59;19.47;;;14.10;;
5022;SDS011;2530;47.990;7.866;2023-07-02T12:25:25;19.88;;;13.88;;
5022;SDS011;2530;47.990;7.866;2023-07-02T12:27:51;17.97;;;14.13;;
5022;SDS011;2530;47.990;7.866;2023-07-02T12:30:16;16.27;;;14.35;;
5022;SDS011;2530;47.990;7.866;2023-07-02T12:32:43;14.82;;;13.20;;
5022;SDS011;2530;47.990;7.866;2023-07-02T12:35:09;15.48;;;13.77;;
5022;SDS011;2530;47.990;7.866;2023-07-02T12:37:35;17.20;;;12.80;;
5022;SDS011;2530;47.990;7.866;2023-07-02T12:40:07;18.98;;;14.07;;
5022;SDS011;2530;47.990;7.866;2023-07-02T12:42:33;14.52;;;12.50;;
5022;SDS011;2530;47.990;7.866;2023-07-02T12:44:58;14.93;;;12.20;;
5022;SDS011;2530;47.990;7.866;2023-07-02T12:47:24;13.90;;;11.10;;
5022;SDS011;2530;47.990;7.866;2023-07-02T12:49:49;14.77;;;11.80;;
5022;SDS011;2530;47.990;7.866;2023-07-02T12:52:15;16.85;;;12.23;;
5022;SDS011;2530;47.990;7.866;2023-07-02T12:54:40;14.57;;;12.10;;
5022;SDS011;2530;47.990;7.866;2023-07-02T12:57:06;15.98;;;12.60;;
5022;SDS011;2530;47.990;7.866;2023-07-02T12:59:31;14.13;;;11.87;;
5022;SDS011;2530;47.990;7.866;2023-07-02T13:01:57;14.88;;;12.23;;
5022;SDS011;2530;47.990;7.866;2023-07-02T13:04:22;14.60;;;12.73;;
5022;SDS011;2530;47.990;7.866;2023-07-02T13:06:48;14.60;;;12.13;;
5022;SDS011;2530;47.990;7.866;2023-07-02T13:09:13;16.33;;;12.43;;
5022;SDS011;2530;47.990;7.866;2023-07-02T13:11:39;15.50;;;11.90;;
5022;SDS011;2530;47.990;7.866;2023-07-02T13:14:05;15.43;;;12.13;;
5022;SDS011;2530;47.990;7.866;2023-07-02T13:16:30;15.60;;;11.87;;
5022;SDS011;2530;47.990;7.866;2023-07-02T13:18:56;14.88;;;12.30;;
5022;SDS011;2530;47.990;7.866;2023-07-02T13:21:22;14.90;;;12.65;;
5022;SDS011;2530;47.990;7.866;2023-07-02T13:23:47;16.43;;;12.80;;
5022;SDS011;2530;47.990;7.866;2023-07-02T13:26:13;18.27;;;13.40;;
5022;SDS011;2530;47.990;7.866;2023-07-02T13:28:38;16.43;;;13.07;;
5022;SDS011;2530;47.990;7.866;2023-07-02T13:31:04;17.48;;;14.20;;
5022;SDS011;2530;47.990;7.866;2023-07-02T13:33:29;16.37;;;14.20;;
5022;SDS011;2530;47.990;7.866;2023-07-02T13:35:56;17.92;;;15.10;;
5022;SDS011;2530;47.990;7.866;2023-07-02T13:38:21;16.75;;;14.40;;
5022;SDS011;2530;47.990;7.866;2023-07-02T13:40:47;17.77;;;14.77;;
5022;SDS011;2530;47.990;7.866;2023-07-02T13:43:13;18.43;;;15.70;;
5022;SDS011;2530;47.990;7.866;2023-07-02T13:45:38;19.00;;;16.50;;
5022;SDS011;2530;47.990;7.866;2023-07-02T13:48:04;19.27;;;16.92;;
5022;SDS011;2530;47.990;7.866;2023-07-02T13:50:30;20.73;;;16.93;;
5022;SDS011;2530;47.990;7.866;2023-07-02T13:52:56;17.77;;;14.68;;
5022;SDS011;2530;47.990;7.866;2023-07-02T13:55:21;19.90;;;15.90;;
5022;SDS011;2530;47.990;7.866;2023-07-02T13:57:52;19.40;;;15.65;;
5022;SDS011;2530;47.990;7.866;2023-07-02T14:00:21;18.70;;;15.70;;
5022;SDS011;2530;47.990;7.866;2023-07-02T14:02:48;19.52;;;15.90;;
5022;SDS011;2530;47.990;7.866;2023-07-02T14:05:13;19.38;;;15.85;;
5022;SDS011;2530;47.990;7.866;2023-07-02T14:07:39;21.50;;;16.23;;
5022;SDS011;2530;47.990;7.866;2023-07-02T14:10:04;17.90;;;15.80;;
5022;SDS011;2530;47.990;7.866;2023-07-02T14:12:30;18.88;;;15.10;;
5022;SDS011;2530;47.990;7.866;2023-07-02T14:14:56;18.90;;;15.23;;
5022;SDS011;2530;47.990;7.866;2023-07-02T14:17:22;18.63;;;15.43;;
5022;SDS011;2530;47.990;7.866;2023-07-02T14:19:47;17.83;;;15.30;;
5022;SDS011;2530;47.990;7.866;2023-07-02T14:22:13;16.92;;;15.10;;
5022;SDS011;2530;47.990;7.866;2023-07-02T14:24:39;17.88;;;13.10;;
5022;SDS011;2530;47.990;7.866;2023-07-02T14:27:05;18.07;;;14.87;;
5022;SDS011;2530;47.990;7.866;2023-07-02T14:29:31;17.30;;;14.00;;
5022;SDS011;2530;47.990;7.866;2023-07-02T14:31:56;19.65;;;14.55;;
5022;SDS011;2530;47.990;7.866;2023-07-02T14:34:22;17.20;;;14.20;;
5022;SDS011;2530;47.990;7.866;2023-07-02T14:36:48;19.90;;;14.65;;
5022;SDS011;2530;47.990;7.866;2023-07-02T14:39:13;18.03;;;13.67;;
5022;SDS011;2530;47.990;7.866;2023-07-02T14:41:39;18.03;;;14.40;;
5022;SDS011;2530;47.990;7.866;2023-07-02T14:44:04;20.88;;;14.80;;
5022;SDS011;2530;47.990;7.866;2023-07-02T14:46:30;14.93;;;11.70;;
5022;SDS011;2530;47.990;7.866;2023-07-02T14:48:56;15.05;;;12.10;;
5022;SDS011;2530;47.990;7.866;2023-07-02T14:51:22;15.07;;;13.02;;
5022;SDS011;2530;47.990;7.866;2023-07-02T14:53:49;17.08;;;12.75;;
5022;SDS011;2530;47.990;7.866;2023-07-02T14:56:15;15.93;;;11.88;;